Time;durP1;ratioP1;P1;durP2;ratioP2;P2;SDS_P1;SDS_P2;PMS_P1;PMS_P2;Temp;Humidity;BMP_temperature;BMP_pressure;BME280_temperature;BME280_humidity;BME280_pressure;Samples;Min_cycle;Max_cycle;Signal;HPM_P1;HPM_P2
2023/05/08 00:01:41;;;;;;;10.77;10.07;;;;;;;8.82;100.00;102539.94;5031203;28;20471;-43
2023/05/08 00:04:09;;;;;;;10.50;9.90;;;;;;;8.80;100.00;102539.25;5030934;28;20428;-45
2023/05/08 00:06:38;;;;;;;9.50;9.00;;;;;;;8.79;100.00;102535.75;5032172;28;20440;-44
2023/05/08 00:09:06;;;;;;;10.83;10.03;;;;;;;8.79;100.00;102540.22;5031515;28;20476;-43
2023/05/08 00:11:34;;;;;;;11.20;10.20;;;;;;;8.78;100.00;102547.38;5029619;28;20472;-45
2023/05/08 00:14:02;;;;;;;9.80;9.13;;;;;;;8.76;100.00;102537.84;5031467;28;20455;-42
2023/05/08 00:16:30;;;;;;;10.17;9.57;;;;;;;8.76;100.00;102535.19;5031199;28;20507;-44
2023/05/08 00:18:58;;;;;;;11.40;10.60;;;;;;;8.74;100.00;102530.03;5030993;28;20566;-40
2023/05/08 00:21:26;;;;;;;11.23;10.43;;;;;;;8.74;100.00;102529.19;5026383;28;21229;-42
2023/05/08 00:23:55;;;;;;;11.20;10.37;;;;;;;8.70;100.00;102533.94;5032355;28;20483;-45
2023/05/08 00:26:23;;;;;;;10.70;10.00;;;;;;;8.68;100.00;102541.22;5030310;28;20492;-41
2023/05/08 00:28:50;;;;;;;10.50;9.80;;;;;;;8.66;100.00;102535.19;5030719;28;21013;-40
2023/05/08 00:31:18;;;;;;;9.50;9.00;;;;;;;8.63;100.00;102532.00;5029090;28;20467;-44
2023/05/08 00:33:46;;;;;;;10.80;10.20;;;;;;;8.61;100.00;102533.94;5030377;28;20436;-40
2023/05/08 00:36:14;;;;;;;9.67;9.27;;;;;;;8.59;100.00;102533.25;5029800;28;20439;-42
2023/05/08 00:38:42;;;;;;;10.37;9.87;;;;;;;8.58;100.00;102535.06;5031543;28;20506;-44
2023/05/08 00:41:11;;;;;;;10.47;9.90;;;;;;;8.57;100.00;102530.72;5029020;28;20547;-43
2023/05/08 00:43:38;;;;;;;11.43;10.53;;;;;;;8.55;100.00;102534.50;5030131;28;20490;-42
2023/05/08 00:46:08;;;;;;;10.37;9.77;;;;;;;8.56;100.00;102530.88;5030076;28;20435;-39
2023/05/08 00:48:36;;;;;;;10.97;10.27;;;;;;;8.56;100.00;102538.84;5029031;28;20930;-43
2023/05/08 00:51:06;;;;;;;10.47;9.97;;;;;;;8.58;100.00;102536.88;5028609;28;20468;-44
2023/05/08 00:53:41;;;;;;;10.60;10.10;;;;;;;8.57;100.00;102546.66;5030170;28;20443;-42
2023/05/08 00:56:12;;;;;;;10.90;10.20;;;;;;;8.55;100.00;102535.34;5029345;28;20482;-45
2023/05/08 00:58:41;;;;;;;11.37;10.67;;;;;;;8.57;100.00;102540.53;5031530;28;20444;-44
2023/05/08 01:01:10;;;;;;;10.50;10.00;;;;;;;8.56;100.00;102534.38;5028942;28;20464;-43
2023/05/08 01:03:39;;;;;;;11.50;10.90;;;;;;;8.57;100.00;102538.69;5031014;28;20436;-39
2023/05/08 01:06:07;;;;;;;11.00;10.40;;;;;;;8.56;100.00;102538.84;5029750;28;20475;-42
2023/05/08 01:08:35;;;;;;;11.17;10.47;;;;;;;8.57;100.00;102537.88;5028895;28;20475;-42
2023/05/08 01:11:23;;;;;;;10.90;10.30;;;;;;;8.56;100.00;102538.84;5030187;28;20897;-42
2023/05/08 01:13:56;;;;;;;11.13;10.47;;;;;;;8.55;100.00;102539.81;5030433;28;20429;-44
2023/05/08 01:16:36;;;;;;;11.30;10.70;;;;;;;8.56;100.00;102541.50;5031062;28;20427;-44
2023/05/08 01:19:14;;;;;;;11.47;10.87;;;;;;;8.55;100.00;102547.78;5029706;28;20467;-44
2023/05/08 01:21:46;;;;;;;11.30;10.50;;;;;;;8.55;100.00;102550.44;5030578;28;20456;-50
2023/05/08 01:24:49;;;;;;;12.20;11.47;;;;;;;8.53;100.00;102549.75;5028789;28;20495;-42
2023/05/08 01:27:40;;;;;;;11.00;10.40;;;;;;;8.50;100.00;102542.91;5021768;28;20428;-43
2023/05/08 01:30:47;;;;;;;11.80;11.07;;;;;;;8.48;100.00;102546.69;5008419;28;20980;-42
2023/05/08 01:33:23;;;;;;;11.27;10.60;;;;;;;8.44;100.00;102555.91;5010521;28;20439;-43
2023/05/08 01:35:57;;;;;;;11.70;10.97;;;;;;;8.44;100.00;102553.25;5010380;28;20436;-47
2023/05/08 01:38:32;;;;;;;11.90;11.20;;;;;;;8.40;100.00;102555.34;5009332;28;20495;-41
2023/05/08 01:41:08;;;;;;;12.50;11.53;;;;;;;8.38;100.00;102559.13;5008348;28;20878;-39
2023/05/08 01:43:48;;;;;;;11.57;10.97;;;;;;;8.36;100.00;102563.75;5008916;28;20429;-44
2023/05/08 01:46:20;;;;;;;11.40;10.70;;;;;;;8.33;100.00;102563.03;5009187;28;21032;-47
2023/05/08 01:48:56;;;;;;;11.43;10.50;;;;;;;8.31;100.00;102566.78;5010189;28;20480;-42
2023/05/08 01:51:27;;;;;;;11.83;11.13;;;;;;;8.25;100.00;102552.22;5008143;28;20472;-41
2023/05/08 01:53:59;;;;;;;12.23;11.53;;;;;;;8.23;100.00;102566.63;5009898;28;20428;-43
2023/05/08 01:56:29;;;;;;;11.50;10.80;;;;;;;8.17;100.00;102570.66;5009667;28;20432;-40
2023/05/08 01:58:59;;;;;;;12.00;11.30;;;;;;;8.15;100.00;102566.47;5009075;28;20451;-39
2023/05/08 02:01:29;;;;;;;12.27;11.67;;;;;;;8.10;100.00;102571.34;5009339;28;20465;-44
2023/05/08 02:04:00;;;;;;;12.60;11.93;;;;;;;8.08;100.00;102568.84;5008889;28;20437;-40
2023/05/08 02:06:31;;;;;;;12.87;12.10;;;;;;;8.05;100.00;102566.44;5011272;28;20499;-47
2023/05/08 02:09:00;;;;;;;12.90;12.17;;;;;;;8.01;100.00;102572.16;5010983;28;20531;-42
2023/05/08 02:11:30;;;;;;;13.47;12.80;;;;;;;7.96;100.00;102569.91;5008425;28;20499;-44
2023/05/08 02:14:00;;;;;;;12.60;11.80;;;;;;;7.93;100.00;102575.50;5010007;28;20891;-44
2023/05/08 02:16:30;;;;;;;12.40;11.80;;;;;;;7.89;100.00;102578.53;5008899;28;20842;-46
2023/05/08 02:19:01;;;;;;;12.50;11.60;;;;;;;7.84;100.00;102581.63;5009117;28;20460;-42
2023/05/08 02:21:31;;;;;;;12.40;11.60;;;;;;;7.85;100.00;102579.81;5008414;28;20531;-44
2023/05/08 02:24:00;;;;;;;12.30;11.60;;;;;;;7.82;100.00;102587.03;5010608;28;20438;-47
2023/05/08 02:26:29;;;;;;;11.80;11.17;;;;;;;7.80;100.00;102596.13;5021976;28;20436;-40
2023/05/08 02:28:58;;;;;;;12.83;11.87;;;;;;;7.75;100.00;102593.88;5029348;28;20988;-41
2023/05/08 02:31:27;;;;;;;11.70;11.20;;;;;;;7.72;100.00;102588.84;5028541;28;20861;-43
2023/05/08 02:33:57;;;;;;;13.40;12.47;;;;;;;7.71;100.00;102588.94;5029372;28;20431;-41
2023/05/08 02:36:28;;;;;;;12.43;11.73;;;;;;;7.67;100.00;102588.41;5027927;28;20511;-44
2023/05/08 02:38:58;;;;;;;12.10;11.50;;;;;;;7.66;100.00;102588.53;5027819;28;20455;-44
2023/05/08 02:41:30;;;;;;;12.10;11.40;;;;;;;7.65;100.00;102586.81;5026992;28;20460;-44
2023/05/08 02:43:58;;;;;;;12.33;11.50;;;;;;;7.62;100.00;102587.09;5027714;28;20505;-40
2023/05/08 02:46:36;;;;;;;12.20;11.60;;;;;;;7.59;100.00;102590.00;5029433;28;20435;-43
2023/05/08 02:49:10;;;;;;;13.63;12.90;;;;;;;7.55;100.00;102586.81;5029451;28;20522;-44
2023/05/08 02:51:46;;;;;;;12.90;12.30;;;;;;;7.51;100.00;102577.41;5027909;28;20458;-43
2023/05/08 02:54:19;;;;;;;13.33;12.43;;;;;;;7.53;100.00;102587.88;5028549;28;20426;-43
2023/05/08 02:57:05;;;;;;;13.00;12.30;;;;;;;7.50;100.00;102574.88;5032048;28;20436;-47
2023/05/08 02:59:40;;;;;;;12.60;11.83;;;;;;;7.50;100.00;102581.03;5031301;28;20447;-40
2023/05/08 03:02:14;;;;;;;12.00;11.37;;;;;;;7.48;100.00;102582.13;5030415;28;20466;-41
2023/05/08 03:04:47;;;;;;;12.17;11.57;;;;;;;7.45;100.00;102571.78;5032464;28;20448;-42
2023/05/08 03:07:16;;;;;;;12.57;11.87;;;;;;;7.42;100.00;102566.75;5032518;28;20505;-44
2023/05/08 03:09:48;;;;;;;12.63;11.97;;;;;;;7.39;100.00;102569.66;5031342;28;20718;-39
2023/05/08 03:12:20;;;;;;;12.47;11.87;;;;;;;7.36;100.00;102570.75;5030413;28;20479;-39
2023/05/08 03:14:56;;;;;;;12.27;11.67;;;;;;;7.34;100.00;102564.75;5032158;28;20431;-42
2023/05/08 03:17:27;;;;;;;13.00;12.30;;;;;;;7.33;100.00;102565.72;5030648;28;20790;-41
2023/05/08 03:19:59;;;;;;;12.60;11.80;;;;;;;7.31;100.00;102562.38;5030928;28;20463;-42
2023/05/08 03:22:30;;;;;;;12.77;12.17;;;;;;;7.31;100.00;102562.38;5031509;28;20464;-44
2023/05/08 03:25:01;;;;;;;13.90;13.10;;;;;;;7.31;100.00;102566.81;5030605;28;20467;-42
2023/05/08 03:27:29;;;;;;;13.00;12.40;;;;;;;7.31;100.00;102557.06;5032146;28;20436;-42
2023/05/08 03:29:59;;;;;;;13.17;12.57;;;;;;;7.30;100.00;102557.16;5030523;28;20480;-45
2023/05/08 03:32:28;;;;;;;13.20;12.40;;;;;;;7.27;100.00;102552.13;5006016;28;20456;-40
2023/05/08 03:34:59;;;;;;;12.40;11.60;;;;;;;7.27;100.00;102555.63;5031405;28;20980;-39
2023/05/08 03:37:28;;;;;;;13.90;13.10;;;;;;;7.25;100.00;102549.63;5032201;28;20424;-44
2023/05/08 03:39:56;;;;;;;12.97;12.17;;;;;;;7.26;100.00;102545.16;5030811;28;20538;-39
2023/05/08 03:42:26;;;;;;;13.20;12.50;;;;;;;7.25;100.00;102546.97;5031854;28;20470;-46
2023/05/08 03:44:54;;;;;;;13.40;12.70;;;;;;;7.26;100.00;102540.66;5030192;28;20482;-42
2023/05/08 03:47:24;;;;;;;13.67;12.97;;;;;;;7.29;100.00;102550.22;5031461;28;20984;-42
2023/05/08 03:49:52;;;;;;;12.90;12.30;;;;;;;7.30;100.00;102536.78;5031224;28;20469;-44
2023/05/08 03:52:20;;;;;;;12.83;12.13;;;;;;;7.34;100.00;102538.22;5030022;28;20541;-42
2023/05/08 03:54:49;;;;;;;12.93;12.23;;;;;;;7.39;100.00;102528.03;5029882;28;20511;-39
2023/05/08 03:57:17;;;;;;;12.97;12.17;;;;;;;7.45;100.00;102529.31;5030916;28;20435;-45
2023/05/08 03:59:52;;;;;;;13.93;13.13;;;;;;;7.48;100.00;102531.69;5030598;28;20452;-43
2023/05/08 04:02:28;;;;;;;13.30;12.60;;;;;;;7.56;100.00;102522.09;5030431;28;20899;-42
2023/05/08 04:05:02;;;;;;;13.10;12.17;;;;;;;7.64;100.00;102519.63;5030536;28;20696;-42
2023/05/08 04:07:36;;;;;;;13.03;12.23;;;;;;;7.72;100.00;102521.59;5030659;28;20417;-43
2023/05/08 04:10:09;;;;;;;12.67;11.97;;;;;;;7.82;100.00;102522.47;5030896;28;20530;-39
2023/05/08 04:12:45;;;;;;;13.47;12.77;;;;;;;7.91;100.00;102528.78;5029991;28;20432;-41
2023/05/08 04:15:18;;;;;;;12.23;11.63;;;;;;;7.97;100.00;102529.09;5030120;28;20485;-42
2023/05/08 04:17:49;;;;;;;12.33;11.53;;;;;;;8.03;100.00;102520.59;5030503;28;20440;-42
2023/05/08 04:20:20;;;;;;;11.33;10.83;;;;;;;8.09;100.00;102512.06;5029334;28;20999;-40
2023/05/08 04:22:50;;;;;;;12.23;11.63;;;;;;;8.25;100.00;102514.16;5030243;28;20436;-45
2023/05/08 04:25:20;;;;;;;11.87;11.20;;;;;;;8.46;100.00;102506.94;5029968;28;20438;-43
2023/05/08 04:27:49;;;;;;;11.87;11.07;;;;;;;9.00;100.00;102511.63;5030159;28;20434;-42
2023/05/08 04:30:17;;;;;;;10.30;9.70;;;;;;;9.67;100.00;102511.41;5030157;28;20564;-44
2023/05/08 04:35:20;;;;;;;11.27;10.57;;;;;;;10.48;100.00;102497.13;4974265;28;20520;-48
2023/05/08 04:37:48;;;;;;;10.03;9.63;;;;;;;10.86;100.00;102506.63;4978292;28;20968;-44
2023/05/08 04:40:16;;;;;;;10.30;9.80;;;;;;;11.58;100.00;102511.56;4975918;28;20944;-42
2023/05/08 04:42:46;;;;;;;10.20;9.70;;;;;;;12.23;100.00;102513.63;4976779;28;20839;-41
2023/05/08 04:45:15;;;;;;;10.40;9.80;;;;;;;12.84;100.00;102513.19;4959807;29;20432;-44
2023/05/08 04:47:43;;;;;;;10.77;9.80;;;;;;;13.54;100.00;102504.34;4956789;28;20856;-42
2023/05/08 04:50:11;;;;;;;9.17;8.77;;;;;;;14.04;99.82;102511.13;4958837;28;20472;-42
2023/05/08 04:52:38;;;;;;;9.50;8.90;;;;;;;14.82;93.18;102512.63;4958188;29;20439;-41
2023/05/08 04:55:07;;;;;;;8.43;8.10;;;;;;;15.25;89.68;102518.25;4958647;28;20845;-45
2023/05/08 04:57:35;;;;;;;7.60;7.30;;;;;;;16.17;89.13;102520.31;4959180;29;20440;-44
2023/05/08 05:00:05;;;;;;;8.30;8.00;;;;;;;16.89;77.70;102523.75;4956618;28;20439;-42
2023/05/08 05:02:33;;;;;;;7.73;7.43;;;;;;;17.46;73.92;102525.38;4954669;29;20947;-42
2023/05/08 05:05:01;;;;;;;9.00;8.60;;;;;;;18.03;72.86;102520.50;4954822;29;20550;-43
2023/05/08 05:07:29;;;;;;;7.87;7.47;;;;;;;18.88;65.87;102530.63;4955982;29;20446;-45
2023/05/08 05:09:56;;;;;;;7.27;6.97;;;;;;;18.79;58.25;102535.41;4953979;29;20475;-43
2023/05/08 05:12:24;;;;;;;7.50;7.20;;;;;;;19.13;63.29;102526.25;4952758;28;20463;-41
2023/05/08 05:14:52;;;;;;;7.60;7.10;;;;;;;19.64;57.84;102530.97;4953764;29;20806;-43
2023/05/08 05:17:21;;;;;;;8.97;8.47;;;;;;;19.73;52.14;102532.41;4953772;29;20435;-47
2023/05/08 05:19:48;;;;;;;7.67;7.33;;;;;;;19.60;53.51;102538.69;4953696;28;20439;-41
2023/05/08 05:22:19;;;;;;;6.70;6.30;;;;;;;19.67;53.64;102544.06;4952679;28;20467;-42
2023/05/08 05:24:46;;;;;;;6.83;6.53;;;;;;;19.80;50.96;102544.03;4953769;28;20518;-42
2023/05/08 05:27:14;;;;;;;6.33;6.03;;;;;;;19.91;54.54;102550.66;4963567;28;20436;-44
2023/05/08 05:29:42;;;;;;;6.27;6.07;;;;;;;20.19;50.88;102543.03;4955820;28;20424;-42
2023/05/08 05:32:10;;;;;;;6.57;6.07;;;;;;;20.59;51.46;102539.03;4948978;28;20825;-43
2023/05/08 05:34:39;;;;;;;5.70;5.50;;;;;;;20.36;48.98;102534.22;4953198;29;20486;-44
2023/05/08 05:37:07;;;;;;;5.90;5.60;;;;;;;20.05;50.50;102538.72;4953739;28;20454;-47
2023/05/08 05:39:36;;;;;;;5.50;5.30;;;;;;;20.99;52.19;102547.72;4954695;28;20443;-40
2023/05/08 05:42:04;;;;;;;5.30;5.10;;;;;;;20.64;48.51;102546.53;4951941;28;20570;-41
2023/05/08 05:44:32;;;;;;;5.20;4.90;;;;;;;20.02;52.29;102539.13;4953106;29;20455;-48
2023/05/08 05:46:59;;;;;;;5.27;4.97;;;;;;;20.16;51.95;102538.03;4953806;28;20465;-41
2023/05/08 05:49:28;;;;;;;5.63;5.33;;;;;;;19.87;49.03;102545.66;4954560;29;20486;-42
2023/05/08 05:51:57;;;;;;;5.93;5.63;;;;;;;20.78;50.78;102542.66;4949207;28;20498;-43
2023/05/08 05:54:25;;;;;;;5.60;5.30;;;;;;;20.90;46.32;102530.06;4952443;29;20463;-43
2023/05/08 05:56:53;;;;;;;6.63;5.90;;;;;;;20.97;46.89;102539.78;4954007;28;20545;-43
2023/05/08 05:59:20;;;;;;;6.20;5.80;;;;;;;21.64;47.06;102531.84;4954105;29;20439;-45
2023/05/08 06:01:48;;;;;;;5.33;5.03;;;;;;;21.77;44.19;102532.53;4955378;29;20964;-46
2023/05/08 06:04:16;;;;;;;6.17;5.87;;;;;;;21.23;43.85;102537.91;4949110;29;20526;-43
2023/05/08 06:06:43;;;;;;;6.50;6.00;;;;;;;21.20;43.85;102538.38;4953304;29;20436;-41
2023/05/08 06:09:12;;;;;;;4.57;4.27;;;;;;;20.97;44.68;102530.81;4952158;29;20439;-41
2023/05/08 06:11:40;;;;;;;5.50;5.20;;;;;;;21.21;43.56;102529.16;4953029;29;21032;-44
2023/05/08 06:14:08;;;;;;;5.50;5.10;;;;;;;21.67;47.42;102539.53;4952506;28;20995;-41
2023/05/08 06:16:36;;;;;;;5.57;5.27;;;;;;;21.38;43.25;102535.69;4954648;29;20489;-43
2023/05/08 06:19:04;;;;;;;5.43;5.13;;;;;;;20.92;45.65;102533.38;4953636;28;20446;-41
2023/05/08 06:21:31;;;;;;;5.83;5.50;;;;;;;20.22;47.43;102537.19;4954623;28;20431;-43
2023/05/08 06:23:59;;;;;;;5.60;5.30;;;;;;;19.38;48.20;102526.44;4953151;28;20498;-41
2023/05/08 06:26:28;;;;;;;6.93;6.53;;;;;;;17.49;49.35;102541.19;4960004;28;20443;-42
2023/05/08 06:28:56;;;;;;;6.40;6.00;;;;;;;17.20;51.77;102541.41;4953806;29;20431;-43
2023/05/08 06:31:23;;;;;;;6.97;6.37;;;;;;;17.36;52.95;102535.69;4956473;28;20474;-41
2023/05/08 06:33:51;;;;;;;6.17;5.87;;;;;;;17.38;54.27;102541.75;4957759;28;20586;-43
2023/05/08 06:36:19;;;;;;;6.30;5.90;;;;;;;17.47;52.47;102524.38;4959213;28;20447;-45
2023/05/08 06:38:46;;;;;;;5.70;5.40;;;;;;;17.83;53.25;102527.66;4957432;29;20435;-43
2023/05/08 06:41:14;;;;;;;6.73;6.23;;;;;;;18.56;52.04;102528.75;4958449;29;20435;-42
2023/05/08 06:43:43;;;;;;;5.93;5.63;;;;;;;19.16;49.05;102525.84;4956677;28;20471;-43
2023/05/08 06:46:11;;;;;;;5.50;5.20;;;;;;;19.57;50.53;102527.44;4959723;29;20486;-42
2023/05/08 06:48:40;;;;;;;6.03;5.63;;;;;;;20.25;51.12;102521.31;4958539;28;20467;-47
2023/05/08 06:51:07;;;;;;;5.73;5.43;;;;;;;20.38;49.44;102525.84;4957451;29;20474;-43
2023/05/08 06:53:35;;;;;;;6.70;6.00;;;;;;;19.76;49.41;102529.25;4957195;28;20751;-41
2023/05/08 06:56:03;;;;;;;7.07;6.67;;;;;;;20.16;47.17;102519.88;4958546;29;20442;-44
2023/05/08 06:58:31;;;;;;;6.10;5.80;;;;;;;20.48;46.67;102530.78;4958437;29;20435;-42
2023/05/08 07:01:01;;;;;;;6.33;5.93;;;;;;;20.49;45.61;102527.03;4956925;28;20457;-42
2023/05/08 07:03:28;;;;;;;6.80;6.43;;;;;;;20.66;46.14;102528.16;4933361;28;20506;-41
2023/05/08 07:05:56;;;;;;;6.87;6.37;;;;;;;20.90;46.04;102516.50;4955435;28;20439;-44
2023/05/08 07:08:24;;;;;;;6.90;6.50;;;;;;;21.09;45.68;102529.06;4956950;29;20465;-41
2023/05/08 07:10:52;;;;;;;7.00;6.60;;;;;;;21.22;45.01;102523.53;4955973;29;21123;-40
2023/05/08 07:13:20;;;;;;;6.60;6.30;;;;;;;21.43;45.23;102522.25;4955864;28;20482;-41
2023/05/08 07:15:48;;;;;;;6.20;5.80;;;;;;;21.69;44.66;102516.50;4955811;28;20797;-41
2023/05/08 07:18:17;;;;;;;5.77;5.47;;;;;;;21.80;44.25;102515.75;4958487;29;20497;-43
2023/05/08 07:20:45;;;;;;;7.07;6.57;;;;;;;21.92;44.55;102507.72;4957348;29;20435;-43
2023/05/08 07:23:13;;;;;;;6.73;6.33;;;;;;;21.89;42.77;102510.88;4958375;28;21011;-43
2023/05/08 07:25:40;;;;;;;7.03;6.57;;;;;;;21.44;44.25;102522.00;4962117;28;20442;-43
2023/05/08 07:28:08;;;;;;;7.60;7.13;;;;;;;21.82;44.34;102512.81;4957917;28;20431;-45
2023/05/08 07:30:36;;;;;;;7.30;6.90;;;;;;;21.78;43.97;102508.88;4957549;29;20518;-40
2023/05/08 07:33:04;;;;;;;7.93;7.53;;;;;;;20.95;43.59;102511.22;4955452;28;20471;-40
2023/05/08 07:35:33;;;;;;;7.10;6.73;;;;;;;20.13;45.38;102512.19;4955273;29;20431;-43
2023/05/08 07:38:01;;;;;;;7.07;6.63;;;;;;;19.83;45.76;102517.34;4956026;28;20580;-42
2023/05/08 07:40:29;;;;;;;7.20;6.70;;;;;;;19.59;47.61;102512.66;4957379;29;20550;-45
2023/05/08 07:42:56;;;;;;;7.00;6.50;;;;;;;19.53;48.17;102509.97;4954028;28;21000;-44
2023/05/08 07:45:24;;;;;;;6.60;6.30;;;;;;;19.04;48.33;102511.28;4957932;29;21091;-43
2023/05/08 07:47:54;;;;;;;7.33;6.80;;;;;;;18.77;48.69;102507.78;4958756;29;20808;-46
2023/05/08 07:50:22;;;;;;;6.87;6.47;;;;;;;18.20;49.63;102510.16;4956765;29;20446;-44
2023/05/08 07:52:52;;;;;;;6.77;6.37;;;;;;;18.08;51.40;102511.78;4956698;28;20915;-49
2023/05/08 07:55:20;;;;;;;7.40;6.80;;;;;;;17.84;51.93;102507.75;4956968;29;20791;-42
2023/05/08 07:57:48;;;;;;;7.50;6.90;;;;;;;17.57;52.81;102514.06;4958195;28;20428;-47
2023/05/08 08:00:16;;;;;;;7.37;6.97;;;;;;;17.56;53.60;102512.41;4957358;29;20475;-40
2023/05/08 08:02:45;;;;;;;7.23;6.60;;;;;;;17.30;53.94;102502.25;4959769;28;21020;-43
2023/05/08 08:05:12;;;;;;;10.10;6.87;;;;;;;16.98;55.16;102506.41;4959116;29;20439;-41
2023/05/08 08:07:41;;;;;;;7.97;7.47;;;;;;;16.83;56.77;102507.53;4958262;29;20442;-43
2023/05/08 08:10:11;;;;;;;7.47;7.00;;;;;;;16.64;59.20;102509.00;4958581;29;20741;-42
2023/05/08 08:12:38;;;;;;;7.57;7.07;;;;;;;16.15;60.74;102500.84;4957864;28;20550;-48
2023/05/08 08:15:07;;;;;;;7.40;6.93;;;;;;;16.25;59.97;102516.66;4957733;28;20547;-44
2023/05/08 08:17:37;;;;;;;7.30;6.90;;;;;;;16.39;60.11;102495.09;4959438;29;20458;-46
2023/05/08 08:20:06;;;;;;;7.97;7.43;;;;;;;16.69;60.12;102495.81;4957276;29;20435;-41
2023/05/08 08:22:35;;;;;;;8.47;7.90;;;;;;;16.98;60.56;102495.63;4957618;28;20464;-47
2023/05/08 08:25:03;;;;;;;8.40;7.80;;;;;;;16.98;60.49;102502.88;4960988;28;20475;-40
2023/05/08 08:27:32;;;;;;;7.40;6.97;;;;;;;16.94;60.48;102496.19;4963192;28;20503;-45
2023/05/08 08:30:00;;;;;;;7.07;6.57;;;;;;;17.34;60.30;102489.22;4957538;28;20448;-44
2023/05/08 08:32:43;;;;;;;8.50;7.70;;;;;;;17.20;58.21;102482.94;4955184;28;20471;-42
2023/05/08 08:35:12;;;;;;;8.10;7.30;;;;;;;17.29;59.11;102472.81;4958705;29;20463;-47
2023/05/08 08:37:40;;;;;;;6.97;6.57;;;;;;;16.95;58.58;102462.84;4958379;28;20431;-41
2023/05/08 08:40:08;;;;;;;8.50;7.90;;;;;;;16.49;61.08;102467.81;4958580;29;20506;-43
2023/05/08 08:42:37;;;;;;;8.50;8.00;;;;;;;16.37;60.34;102464.81;4956691;28;20494;-44
2023/05/08 08:45:07;;;;;;;7.70;7.30;;;;;;;16.37;60.57;102462.13;4959552;29;20460;-48
2023/05/08 08:47:37;;;;;;;9.10;8.50;;;;;;;16.29;60.56;102458.72;4957277;29;20442;-43
2023/05/08 08:50:07;;;;;;;7.63;7.23;;;;;;;16.28;62.36;102460.59;4958402;29;20439;-42
2023/05/08 08:52:43;;;;;;;7.40;6.90;;;;;;;16.55;61.85;102461.69;4954185;28;20475;-49
2023/05/08 08:55:15;;;;;;;7.80;7.30;;;;;;;16.52;61.17;102462.88;4958942;29;20957;-40
2023/05/08 08:57:53;;;;;;;7.50;7.00;;;;;;;16.72;61.21;102456.88;4958880;29;20971;-46
2023/05/08 09:00:27;;;;;;;7.70;7.20;;;;;;;16.41;59.61;102452.66;4959096;28;20514;-42
2023/05/08 09:02:55;;;;;;;7.33;6.50;;;;;;;16.53;59.41;102453.78;4959269;28;20416;-42
2023/05/08 09:05:23;;;;;;;6.67;6.27;;;;;;;16.79;59.70;102461.28;4947895;28;20821;-43
2023/05/08 09:07:54;;;;;;;7.53;7.03;;;;;;;16.90;59.76;102451.81;4958872;28;20507;-43
2023/05/08 09:10:23;;;;;;;7.73;7.23;;;;;;;16.81;59.72;102453.00;4957584;28;20443;-43
2023/05/08 09:12:52;;;;;;;7.97;7.37;;;;;;;16.61;60.96;102454.72;4958480;29;20477;-42
2023/05/08 09:15:20;;;;;;;8.13;7.63;;;;;;;16.44;61.16;102456.81;4958529;29;20494;-42
2023/05/08 09:17:48;;;;;;;7.00;6.60;;;;;;;16.24;63.63;102450.41;4957278;29;20494;-40
2023/05/08 09:20:16;;;;;;;7.10;6.60;;;;;;;16.40;62.01;102448.28;4957961;28;20474;-41
2023/05/08 09:22:44;;;;;;;7.10;6.70;;;;;;;16.66;61.13;102447.72;4958344;29;20427;-43
2023/05/08 09:25:11;;;;;;;6.67;6.07;;;;;;;16.84;59.79;102449.91;4958609;28;20458;-42
2023/05/08 09:27:40;;;;;;;7.00;6.60;;;;;;;17.06;58.29;102452.34;4961354;28;20542;-42
2023/05/08 09:30:11;;;;;;;5.93;5.63;;;;;;;16.89;57.42;102460.94;4959410;28;20440;-44
2023/05/08 09:32:40;;;;;;;6.03;5.70;;;;;;;17.04;55.90;102459.81;4959221;29;20497;-43
2023/05/08 09:35:09;;;;;;;7.27;6.80;;;;;;;17.32;56.03;102457.06;4956116;28;20470;-45
2023/05/08 09:37:38;;;;;;;6.00;5.70;;;;;;;17.26;54.64;102459.72;4956172;29;21050;-42
2023/05/08 09:40:14;;;;;;;6.07;5.50;;;;;;;17.45;55.45;102457.13;4955896;28;20822;-40
2023/05/08 09:42:42;;;;;;;6.23;5.73;;;;;;;17.35;55.84;102447.75;4957083;28;20434;-41
2023/05/08 09:45:12;;;;;;;6.20;5.80;;;;;;;17.54;54.98;102442.47;4957592;28;20518;-46
2023/05/08 09:47:48;;;;;;;7.10;6.70;;;;;;;17.66;55.38;102450.81;4956613;29;20763;-42
2023/05/08 09:50:16;;;;;;;5.90;5.60;;;;;;;17.65;53.61;102444.56;4956596;28;20431;-43
2023/05/08 09:52:47;;;;;;;5.93;5.63;;;;;;;17.35;53.56;102450.44;4957386;29;20503;-43
2023/05/08 09:55:15;;;;;;;5.70;5.40;;;;;;;17.37;55.10;102446.50;4956979;28;20546;-44
2023/05/08 09:57:53;;;;;;;5.13;4.83;;;;;;;17.76;53.70;102445.88;4956439;29;20431;-42
2023/05/08 10:00:22;;;;;;;6.60;6.20;;;;;;;18.13;54.28;102431.81;4958123;29;20510;-47
2023/05/08 10:02:58;;;;;;;5.80;5.50;;;;;;;18.27;52.83;102427.28;4956663;29;21049;-44
2023/05/08 10:05:29;;;;;;;5.30;5.00;;;;;;;18.60;53.80;102427.34;4943855;28;20937;-43
2023/05/08 10:07:58;;;;;;;6.50;6.00;;;;;;;18.59;53.10;102423.78;4957061;29;20527;-44
2023/05/08 10:10:29;;;;;;;5.67;5.27;;;;;;;18.47;50.58;102416.47;4955862;29;20446;-42
2023/05/08 10:12:58;;;;;;;5.73;5.30;;;;;;;18.59;50.31;102426.50;4954779;28;20562;-46
2023/05/08 10:15:29;;;;;;;5.70;5.40;;;;;;;18.51;49.80;102409.66;4955377;29;20833;-42
2023/05/08 10:18:03;;;;;;;5.63;5.23;;;;;;;18.34;48.29;102424.59;4956280;28;20448;-47
2023/05/08 10:20:32;;;;;;;5.67;5.37;;;;;;;18.53;49.41;102421.94;4955725;29;20438;-44
2023/05/08 10:23:01;;;;;;;5.30;5.00;;;;;;;18.34;49.62;102414.59;4957248;28;20538;-46
2023/05/08 10:25:32;;;;;;;4.93;4.73;;;;;;;18.56;48.73;102413.41;4961259;28;20434;-43
2023/05/08 10:28:09;;;;;;;6.37;5.87;;;;;;;18.58;48.63;102408.63;4956243;28;20424;-40
2023/05/08 10:30:43;;;;;;;5.40;5.03;;;;;;;18.67;47.48;102398.41;4955421;28;20427;-45
2023/05/08 10:33:16;;;;;;;4.97;4.77;;;;;;;18.53;46.02;102405.72;4951971;28;20483;-42
2023/05/08 10:35:45;;;;;;;5.37;4.97;;;;;;;18.65;49.34;102395.94;4955091;29;20431;-43
2023/05/08 10:38:16;;;;;;;5.77;5.47;;;;;;;18.70;48.89;102400.69;5010970;22;20574;-41
2023/05/08 10:40:45;;;;;;;5.30;5.00;;;;;;;18.78;48.60;102405.91;5010888;28;20435;-44
2023/05/08 10:43:13;;;;;;;5.50;5.20;;;;;;;18.40;47.58;102394.06;5009582;28;20527;-42
2023/05/08 10:45:42;;;;;;;5.43;5.13;;;;;;;18.61;47.95;102396.56;5010485;28;20435;-43
2023/05/08 10:48:22;;;;;;;5.10;4.80;;;;;;;18.63;46.11;102399.91;5009754;28;20463;-43
2023/05/08 10:51:00;;;;;;;5.00;4.70;;;;;;;18.57;45.54;102389.91;5009972;28;20432;-43
2023/05/08 10:53:34;;;;;;;5.60;5.17;;;;;;;18.58;46.26;102375.34;5003062;28;20484;-45
2023/05/08 10:56:02;;;;;;;4.90;4.70;;;;;;;18.63;47.35;102384.53;5009142;28;20437;-41
2023/05/08 10:58:32;;;;;;;5.30;5.00;;;;;;;18.63;47.43;102379.13;5010623;28;20535;-40
2023/05/08 11:01:16;;;;;;;5.57;5.27;;;;;;;18.71;47.13;102372.66;5010646;28;20443;-41
2023/05/08 11:03:50;;;;;;;5.37;5.00;;;;;;;18.38;47.16;102374.50;5009410;28;20432;-44
2023/05/08 11:06:38;;;;;;;5.60;5.20;;;;;;;18.55;46.09;102376.59;5001424;28;20472;-40
2023/05/08 11:09:07;;;;;;;5.13;4.73;;;;;;;18.53;46.18;102358.94;5010024;28;20472;-41
2023/05/08 11:11:38;;;;;;;7.10;5.17;;;;;;;18.67;46.77;102363.28;5009534;28;20853;-42
2023/05/08 11:14:16;;;;;;;5.03;4.77;;;;;;;18.55;45.69;102360.41;5009962;28;20475;-40
2023/05/08 11:17:04;;;;;;;4.97;4.67;;;;;;;18.78;46.01;102360.78;5011047;28;20538;-41
2023/05/08 11:19:32;;;;;;;5.20;5.00;;;;;;;18.70;45.38;102349.34;5013839;28;20436;-41
2023/05/08 11:22:14;;;;;;;5.33;4.83;;;;;;;18.77;46.25;102356.41;5012105;28;20497;-40
2023/05/08 11:24:48;;;;;;;4.17;3.97;;;;;;;18.90;45.70;102354.72;5013337;28;20862;-41
2023/05/08 11:27:16;;;;;;;4.83;4.43;;;;;;;19.01;45.14;102346.78;5006611;28;20676;-43
2023/05/08 11:29:44;;;;;;;5.10;4.80;;;;;;;18.99;44.22;102357.00;5013885;28;20515;-44
2023/05/08 11:32:13;;;;;;;5.23;5.03;;;;;;;19.11;44.77;102344.47;5012753;28;20433;-42
2023/05/08 11:34:50;;;;;;;4.93;4.60;;;;;;;19.26;42.74;102342.28;5010435;28;20468;-43
2023/05/08 11:37:19;;;;;;;4.53;4.33;;;;;;;19.31;43.43;102350.63;5012658;28;20535;-43